createdAt,value
2023-04-15T00:00:08.022Z,60.46
2023-04-15T00:02:37.282Z,60.20
2023-04-15T00:05:05.806Z,59.92
2023-04-15T00:07:33.877Z,60.13
2023-04-15T00:10:02.136Z,60.31
2023-04-15T00:12:29.973Z,60.22
2023-04-15T00:14:58.896Z,60.97
2023-04-15T00:17:26.902Z,60.97
2023-04-15T00:19:56.731Z,60.95
2023-04-15T00:22:24.525Z,61.42
2023-04-15T00:24:52.497Z,61.56
2023-04-15T00:27:21.051Z,61.87
2023-04-15T00:29:48.785Z,61.95
2023-04-15T00:32:16.705Z,61.85
2023-04-15T00:34:46.252Z,62.03
2023-04-15T00:37:15.916Z,62.93
2023-04-15T00:39:43.939Z,62.53
2023-04-15T00:42:12.174Z,62.77
2023-04-15T00:44:39.932Z,62.66
2023-04-15T00:47:08.824Z,62.86
2023-04-15T00:49:36.765Z,63.01
2023-04-15T00:52:04.678Z,63.19
2023-04-15T00:54:33.882Z,62.80
2023-04-15T00:57:02.069Z,63.53
2023-04-15T00:59:32.566Z,63.44
2023-04-15T01:02:00.797Z,63.83
2023-04-15T01:04:28.887Z,63.48
2023-04-15T01:06:56.801Z,63.96
2023-04-15T01:09:24.656Z,63.77
2023-04-15T01:11:54.218Z,64.41
2023-04-15T01:14:22.546Z,63.94
2023-04-15T01:16:50.881Z,64.26
2023-04-15T01:19:19.036Z,64.39
2023-04-15T01:21:47.058Z,64.61
2023-04-15T01:24:18.925Z,64.75
2023-04-15T01:26:49.861Z,64.43
2023-04-15T01:29:18.674Z,64.20
2023-04-15T01:31:52.034Z,64.61
2023-04-15T01:34:20.192Z,64.41
2023-04-15T01:36:48.071Z,64.44
2023-04-15T01:39:18.867Z,65.00
2023-04-15T01:41:48.649Z,64.82
2023-04-15T01:44:16.545Z,65.10
2023-04-15T01:46:44.504Z,65.43
2023-04-15T01:49:12.513Z,65.73
2023-04-15T01:51:40.346Z,65.43
2023-04-15T01:54:08.395Z,65.49
2023-04-15T01:56:36.360Z,65.35
2023-04-15T01:59:06.275Z,66.01
2023-04-15T02:01:34.120Z,66.29
2023-04-15T02:04:02.218Z,65.95
2023-04-15T02:06:30.020Z,66.59
2023-04-15T02:08:59.183Z,66.60
2023-04-15T02:11:41.591Z,66.71
2023-04-15T02:14:10.776Z,66.58
2023-04-15T02:16:38.540Z,66.92
2023-04-15T02:19:06.415Z,66.36
2023-04-15T02:21:35.549Z,66.79
2023-04-15T02:24:04.332Z,67.16
2023-04-15T02:26:33.520Z,67.09
2023-04-15T02:29:02.640Z,66.87
2023-04-15T02:31:36.958Z,67.33
2023-04-15T02:34:04.873Z,67.61
2023-04-15T02:36:33.101Z,67.92
2023-04-15T02:39:01.584Z,67.88
2023-04-15T02:41:30.534Z,67.84
2023-04-15T02:43:58.311Z,68.28
2023-04-15T02:46:27.500Z,68.65
2023-04-15T02:48:56.779Z,68.73
2023-04-15T02:51:24.590Z,68.93
2023-04-15T02:53:52.390Z,69.11
2023-04-15T02:56:20.097Z,69.67
2023-04-15T02:58:50.596Z,69.44
2023-04-15T03:01:18.622Z,69.51
2023-04-15T03:03:46.864Z,69.15
2023-04-15T03:06:16.514Z,69.48
2023-04-15T03:08:44.481Z,69.60
2023-04-15T03:11:12.657Z,69.40
2023-04-15T03:13:41.854Z,69.58
2023-04-15T03:16:09.833Z,69.75
2023-04-15T03:18:38.422Z,70.11
2023-04-15T03:21:06.296Z,70.17
2023-04-15T03:23:36.004Z,70.24
2023-04-15T03:26:04.227Z,70.53
2023-04-15T03:28:32.803Z,70.46
2023-04-15T03:31:01.131Z,70.80
2023-04-15T03:33:28.990Z,71.07
2023-04-15T03:35:56.767Z,71.19
2023-04-15T03:38:24.517Z,71.05
2023-04-15T03:40:53.913Z,71.71
2023-04-15T03:43:21.969Z,71.54
2023-04-15T03:45:49.819Z,71.55
2023-04-15T03:48:18.265Z,71.80
2023-04-15T03:50:46.348Z,71.92
2023-04-15T03:53:14.573Z,72.28
2023-04-15T03:55:42.681Z,72.39
2023-04-15T03:58:13.139Z,72.00
2023-04-15T04:00:41.502Z,72.40
2023-04-15T04:03:09.538Z,72.72
2023-04-15T04:05:39.091Z,72.53
2023-04-15T04:08:07.491Z,72.67
2023-04-15T04:10:35.307Z,73.04
2023-04-15T04:13:03.081Z,73.07
2023-04-15T04:15:32.263Z,73.27
2023-04-15T04:18:00.113Z,73.46
2023-04-15T04:20:27.908Z,73.72
2023-04-15T04:22:55.619Z,73.55
2023-04-15T04:25:24.475Z,73.63
2023-04-15T04:27:52.473Z,73.87
2023-04-15T04:30:20.220Z,73.47
2023-04-15T04:32:51.586Z,73.97
2023-04-15T04:35:19.438Z,74.11
2023-04-15T04:37:47.182Z,74.39
2023-04-15T04:40:15.049Z,74.44
2023-04-15T04:42:42.820Z,74.56
2023-04-15T04:45:11.269Z,74.44
2023-04-15T04:47:39.123Z,74.26
2023-04-15T04:50:10.319Z,74.61
2023-04-15T04:52:38.238Z,74.57
2023-04-15T04:55:08.678Z,74.80
2023-04-15T04:57:37.714Z,74.96
2023-04-15T05:00:08.511Z,75.11
2023-04-15T05:02:36.913Z,75.11
2023-04-15T05:05:05.072Z,75.04
2023-04-15T05:07:34.505Z,74.92
2023-04-15T05:10:02.297Z,75.09
2023-04-15T05:12:30.087Z,75.08
2023-04-15T05:14:57.920Z,75.37
2023-04-15T05:17:25.671Z,75.30
2023-04-15T05:19:53.883Z,75.42
2023-04-15T05:22:21.713Z,75.09
2023-04-15T05:24:50.855Z,75.13
2023-04-15T05:27:19.125Z,75.16
2023-04-15T05:29:47.053Z,75.37
2023-04-15T05:32:14.924Z,75.38
2023-04-15T05:34:42.708Z,75.56
2023-04-15T05:37:13.019Z,75.55
2023-04-15T05:39:41.072Z,75.49
2023-04-15T05:42:10.697Z,75.75
2023-04-15T05:44:38.444Z,75.91
2023-04-15T05:47:07.267Z,76.15
2023-04-15T05:49:35.028Z,76.14
2023-04-15T05:52:02.865Z,75.90
2023-04-15T05:54:30.646Z,75.86
2023-04-15T05:56:59.130Z,75.70
2023-04-15T05:59:28.413Z,75.79
2023-04-15T06:01:56.552Z,75.72
2023-04-15T06:04:24.390Z,76.14
2023-04-15T06:06:52.247Z,76.08
2023-04-15T06:09:20.169Z,75.92
2023-04-15T06:11:47.964Z,76.20
2023-04-15T06:14:15.715Z,75.93
2023-04-15T06:16:44.998Z,75.88
2023-04-15T06:19:12.790Z,75.44
2023-04-15T06:21:41.129Z,75.57
2023-04-15T06:24:08.982Z,75.30
2023-04-15T06:26:37.085Z,75.49
2023-04-15T06:29:05.034Z,74.98
2023-04-15T06:31:32.891Z,75.21
2023-04-15T06:34:02.450Z,74.53
2023-04-15T06:36:30.814Z,75.03
2023-04-15T06:38:58.600Z,74.42
2023-04-15T06:41:26.367Z,74.03
2023-04-15T06:43:54.170Z,74.03
2023-04-15T06:46:22.330Z,73.64
2023-04-15T06:48:50.088Z,73.24
2023-04-15T06:51:19.343Z,72.65
2023-04-15T06:53:47.338Z,72.91
2023-04-15T06:56:15.143Z,72.02
2023-04-15T06:58:42.922Z,72.10
2023-04-15T07:01:10.784Z,71.68
2023-04-15T07:03:38.870Z,71.18
2023-04-15T07:06:07.718Z,70.76
2023-04-15T07:08:37.013Z,70.51
2023-04-15T07:11:04.797Z,69.53
2023-04-15T07:13:33.818Z,69.02
2023-04-15T07:16:01.857Z,68.94
2023-04-15T07:18:29.664Z,68.45
2023-04-15T07:20:57.489Z,68.51
2023-04-15T07:23:25.422Z,67.97
2023-04-15T07:25:54.588Z,67.10
2023-04-15T07:28:22.611Z,67.05
2023-04-15T07:30:50.489Z,66.97
2023-04-15T07:33:18.430Z,66.93
2023-04-15T07:35:46.823Z,66.48
2023-04-15T07:38:14.767Z,66.10
2023-04-15T07:40:42.902Z,65.48
2023-04-15T07:43:13.464Z,65.05
2023-04-15T07:45:41.472Z,65.65
2023-04-15T07:48:09.329Z,65.16
2023-04-15T07:50:37.405Z,64.53
2023-04-15T07:53:05.713Z,64.63
2023-04-15T07:55:33.524Z,63.99
2023-04-15T07:58:01.347Z,64.00
2023-04-15T08:00:30.761Z,64.14
2023-04-15T08:02:59.595Z,62.80
2023-04-15T08:05:27.601Z,62.79
2023-04-15T08:07:55.327Z,63.03
2023-04-15T08:10:23.702Z,63.22
2023-04-15T08:12:54.285Z,62.47
2023-04-15T08:15:22.256Z,62.59
2023-04-15T08:17:51.518Z,62.55
2023-04-15T08:20:19.762Z,62.29
2023-04-15T08:22:51.845Z,62.21
2023-04-15T08:25:20.087Z,60.49
2023-04-15T08:27:47.925Z,59.72
2023-04-15T08:30:15.971Z,60.10
2023-04-15T08:32:46.974Z,59.86
2023-04-15T08:35:16.570Z,60.07
2023-04-15T08:37:44.402Z,59.54
2023-04-15T08:40:13.701Z,59.27
2023-04-15T08:42:45.760Z,59.66
2023-04-15T08:45:13.635Z,59.72
2023-04-15T08:47:42.337Z,59.78
2023-04-15T08:50:11.761Z,59.98
2023-04-15T08:52:41.192Z,60.00
2023-04-15T08:55:10.602Z,60.04
2023-04-15T08:57:39.861Z,60.53
2023-04-15T09:00:09.384Z,60.18
2023-04-15T09:02:37.515Z,59.57
2023-04-15T09:05:07.010Z,60.33
2023-04-15T09:07:35.893Z,60.61
2023-04-15T09:10:06.662Z,60.44
2023-04-15T09:12:35.990Z,60.23
2023-04-15T09:15:03.934Z,59.42
2023-04-15T09:17:34.985Z,59.56
2023-04-15T09:20:10.378Z,60.49
2023-04-15T09:22:38.558Z,59.98
2023-04-15T09:25:27.449Z,60.56
2023-04-15T09:27:57.545Z,61.07
2023-04-15T09:30:25.628Z,61.33
2023-04-15T09:32:55.019Z,61.16
2023-04-15T09:35:24.343Z,61.87
2023-04-15T09:37:53.103Z,61.35
2023-04-15T09:40:35.244Z,60.95
2023-04-15T09:43:03.759Z,60.96
2023-04-15T09:45:31.922Z,60.98
2023-04-15T09:48:00.720Z,61.09
2023-04-15T09:50:30.650Z,60.91
2023-04-15T09:52:59.605Z,61.16
2023-04-15T09:55:27.348Z,60.49
2023-04-15T09:57:56.578Z,60.23
2023-04-15T10:00:24.354Z,60.91
2023-04-15T10:02:53.145Z,60.87
2023-04-15T10:05:22.114Z,61.26
2023-04-15T10:07:50.857Z,61.24
2023-04-15T10:10:19.712Z,61.06
2023-04-15T10:12:47.786Z,60.70
2023-04-15T10:15:18.501Z,60.57
2023-04-15T10:17:46.877Z,59.92
2023-04-15T10:20:16.438Z,60.06
2023-04-15T10:22:46.595Z,60.15
2023-04-15T10:25:16.467Z,60.41
2023-04-15T10:27:45.066Z,60.71
2023-04-15T10:30:13.981Z,61.10
2023-04-15T10:32:43.659Z,60.80
2023-04-15T10:35:12.783Z,60.91
2023-04-15T10:37:40.881Z,61.21
2023-04-15T10:40:27.316Z,61.49
2023-04-15T10:42:57.100Z,61.12
2023-04-15T10:45:28.263Z,60.84
2023-04-15T10:48:03.984Z,61.17
2023-04-15T10:50:32.942Z,60.99
2023-04-15T10:53:04.744Z,61.56
2023-04-15T10:55:34.760Z,61.98
2023-04-15T10:58:03.770Z,61.83
2023-04-15T11:00:32.849Z,62.12
2023-04-15T11:03:08.023Z,62.76
2023-04-15T11:05:51.015Z,62.40
2023-04-15T11:08:19.032Z,61.20
2023-04-15T11:10:55.970Z,61.29
2023-04-15T11:13:28.936Z,61.08
2023-04-15T11:16:01.695Z,61.27
2023-04-15T11:18:35.259Z,61.15
2023-04-15T11:21:05.390Z,60.99
2023-04-15T11:23:39.072Z,61.03
2023-04-15T11:26:09.834Z,60.65
2023-04-15T11:28:39.215Z,59.87
2023-04-15T11:31:10.661Z,59.49
2023-04-15T11:33:47.036Z,59.25
2023-04-15T11:36:14.939Z,59.11
2023-04-15T11:38:48.570Z,59.71
2023-04-15T11:41:17.117Z,59.24
2023-04-15T11:43:44.870Z,58.32
2023-04-15T11:46:12.722Z,57.89
2023-04-15T11:48:44.824Z,58.34
2023-04-15T11:51:13.790Z,58.72
2023-04-15T11:53:43.510Z,58.70
2023-04-15T11:56:13.298Z,59.30
2023-04-15T11:58:42.537Z,60.18
2023-04-15T12:01:10.563Z,59.88
2023-04-15T12:03:40.547Z,59.90
2023-04-15T12:06:16.485Z,59.81
2023-04-15T12:09:12.208Z,59.07
2023-04-15T12:11:45.496Z,58.62
2023-04-15T12:14:17.590Z,59.19
2023-04-15T12:16:50.001Z,59.63
2023-04-15T12:19:24.285Z,59.82
2023-04-15T12:21:55.435Z,60.59
2023-04-15T12:24:24.084Z,60.43
2023-04-15T12:26:53.965Z,59.83
2023-04-15T12:29:26.274Z,59.40
2023-04-15T12:31:55.162Z,59.29
2023-04-15T12:34:30.753Z,59.61
2023-04-15T12:37:01.707Z,59.09
2023-04-15T12:39:32.000Z,59.31
2023-04-15T12:42:00.686Z,59.17
2023-04-15T12:44:29.667Z,59.26
2023-04-15T12:46:58.274Z,60.19
2023-04-15T12:49:26.768Z,60.42
2023-04-15T12:51:56.242Z,61.27
2023-04-15T12:54:25.406Z,61.75
2023-04-15T12:56:53.336Z,62.26
2023-04-15T12:59:21.395Z,62.63
2023-04-15T13:01:51.024Z,61.97
2023-04-15T13:04:19.300Z,61.57
2023-04-15T13:06:47.303Z,61.71
2023-04-15T13:09:15.064Z,60.73
2023-04-15T13:11:44.429Z,60.74
2023-04-15T13:14:13.116Z,61.00
2023-04-15T13:16:41.398Z,60.64
2023-04-15T13:19:09.320Z,60.08
2023-04-15T13:21:37.160Z,60.44
2023-04-15T13:24:07.190Z,60.55
2023-04-15T13:26:35.334Z,61.17
2023-04-15T13:29:04.576Z,60.71
2023-04-15T13:34:00.367Z,61.66
2023-04-15T13:36:28.353Z,61.73
2023-04-15T13:38:56.708Z,61.77
2023-04-15T13:41:24.875Z,61.86
2023-04-15T13:43:52.645Z,62.28
2023-04-15T13:46:22.203Z,62.53
2023-04-15T13:48:50.146Z,62.61
2023-04-15T13:51:18.072Z,62.58
2023-04-15T13:53:45.962Z,62.63
2023-04-15T13:56:13.749Z,62.12
2023-04-15T13:58:42.044Z,62.13
2023-04-15T14:01:09.842Z,62.54
2023-04-15T14:03:39.516Z,62.89
2023-04-15T14:06:07.979Z,63.04
2023-04-15T14:08:35.754Z,63.34
2023-04-15T14:11:03.551Z,63.19
2023-04-15T14:13:31.384Z,63.01
2023-04-15T14:15:59.206Z,62.82
2023-04-15T14:18:27.163Z,63.31
2023-04-15T14:20:56.280Z,63.07
2023-04-15T14:23:24.192Z,62.79
2023-04-15T14:25:52.218Z,62.99
2023-04-15T14:28:20.025Z,63.08
2023-04-15T14:30:47.857Z,63.48
2023-04-15T14:33:15.641Z,63.80
2023-04-15T14:35:43.374Z,64.78
2023-04-15T14:38:12.482Z,64.99
2023-04-15T14:40:40.408Z,64.77
2023-04-15T14:43:08.248Z,64.04
2023-04-15T14:45:36.502Z,63.95
2023-04-15T14:48:06.405Z,64.05
2023-04-15T14:50:34.443Z,64.30
2023-04-15T14:53:02.456Z,64.40
2023-04-15T14:55:31.555Z,64.61
2023-04-15T14:57:59.239Z,64.20
2023-04-15T15:00:27.260Z,63.68
2023-04-15T15:02:55.100Z,63.80
2023-04-15T15:05:26.639Z,63.68
2023-04-15T15:07:54.398Z,63.33
2023-04-15T15:10:32.678Z,63.96
2023-04-15T15:13:11.920Z,64.22
2023-04-15T15:15:40.346Z,64.55
2023-04-15T15:18:08.219Z,64.51
2023-04-15T15:20:36.080Z,64.64
2023-04-15T15:23:03.772Z,65.03
2023-04-15T15:25:31.595Z,65.60
2023-04-15T15:27:59.420Z,65.98
2023-04-15T15:30:28.491Z,65.75
2023-04-15T15:32:56.349Z,66.25
2023-04-15T15:35:25.777Z,65.74
2023-04-15T15:37:54.919Z,65.68
2023-04-15T15:40:22.671Z,65.56
2023-04-15T15:42:51.077Z,66.30
2023-04-15T15:45:19.013Z,66.35
2023-04-15T15:47:48.866Z,67.32
2023-04-15T15:50:16.683Z,67.35
2023-04-15T15:52:44.418Z,67.74
2023-04-15T15:55:12.192Z,67.79
2023-04-15T15:57:39.990Z,68.73
2023-04-15T16:00:13.753Z,68.75
2023-04-15T16:05:13.820Z,69.43
2023-04-15T16:07:41.517Z,70.72
2023-04-15T16:10:10.266Z,71.23
2023-04-15T16:12:38.181Z,71.57
2023-04-15T16:15:07.035Z,71.85
2023-04-15T16:17:35.022Z,71.97
2023-04-15T16:20:05.662Z,71.89
2023-04-15T16:22:35.994Z,71.98
2023-04-15T16:25:04.347Z,72.97
2023-04-15T16:27:32.249Z,72.33
2023-04-15T16:30:00.987Z,72.38
2023-04-15T16:32:28.647Z,72.19
2023-04-15T16:34:56.860Z,72.15
2023-04-15T16:37:24.613Z,71.98
2023-04-15T16:39:54.820Z,72.28
2023-04-15T16:42:22.546Z,72.75
2023-04-15T16:44:50.254Z,72.77
2023-04-15T16:47:18.179Z,72.58
2023-04-15T16:49:46.018Z,72.29
2023-04-15T16:52:13.684Z,73.25
2023-04-15T16:54:42.198Z,72.88
2023-04-15T16:57:11.422Z,73.86
2023-04-15T16:59:39.270Z,73.64
2023-04-15T17:02:07.600Z,73.64
2023-04-15T17:04:36.625Z,73.39
2023-04-15T17:07:04.796Z,73.36
2023-04-15T17:09:32.495Z,73.41
2023-04-15T17:12:01.019Z,73.58
2023-04-15T17:14:30.071Z,74.17
2023-04-15T17:16:57.826Z,73.68
2023-04-15T17:19:26.767Z,73.68
2023-04-15T17:21:55.239Z,73.33
2023-04-15T17:24:23.130Z,73.21
2023-04-15T17:26:50.905Z,72.61
2023-04-15T17:29:18.660Z,73.13
2023-04-15T17:31:47.912Z,72.94
2023-04-15T17:34:16.177Z,73.55
2023-04-15T17:36:44.058Z,73.00
2023-04-15T17:39:11.890Z,73.93
2023-04-15T17:41:39.657Z,74.08
2023-04-15T17:44:07.588Z,73.96
2023-04-15T17:46:35.552Z,74.01
2023-04-15T17:49:05.921Z,73.84
2023-04-15T17:51:34.136Z,74.35
2023-04-15T17:54:01.999Z,74.00
2023-04-15T17:56:29.802Z,74.31
2023-04-15T17:58:58.376Z,74.71
2023-04-15T18:01:26.315Z,74.02
2023-04-15T18:03:54.398Z,74.73
2023-04-15T18:06:23.769Z,74.76
2023-04-15T18:08:52.514Z,74.13
2023-04-15T18:11:20.456Z,74.18
2023-04-15T18:13:48.226Z,74.87
2023-04-15T18:16:16.065Z,75.51
2023-04-15T18:18:43.883Z,75.72
2023-04-15T18:21:13.588Z,75.76
2023-04-15T18:23:46.123Z,76.20
2023-04-15T18:26:14.202Z,75.73
2023-04-15T18:28:42.098Z,76.06
2023-04-15T18:31:10.029Z,75.93
2023-04-15T18:33:38.324Z,75.91
2023-04-15T18:36:06.218Z,75.54
2023-04-15T18:38:34.002Z,76.28
2023-04-15T18:41:03.174Z,75.54
2023-04-15T18:43:30.858Z,76.55
2023-04-15T18:45:58.607Z,76.84
2023-04-15T18:48:27.298Z,76.94
2023-04-15T18:50:58.349Z,77.94
2023-04-15T18:53:26.106Z,78.28
2023-04-15T18:55:53.789Z,78.47
2023-04-15T18:58:22.902Z,78.38
2023-04-15T19:00:50.663Z,78.38
2023-04-15T19:03:18.544Z,79.16
2023-04-15T19:05:46.349Z,78.92
2023-04-15T19:08:14.120Z,79.12
2023-04-15T19:10:41.890Z,78.88
2023-04-15T19:13:09.739Z,79.01
2023-04-15T19:15:38.919Z,78.61
2023-04-15T19:18:10.470Z,78.89
2023-04-15T19:20:40.045Z,79.72
2023-04-15T19:23:08.389Z,80.55
2023-04-15T19:25:36.641Z,80.56
2023-04-15T19:28:04.438Z,80.39
2023-04-15T19:30:33.852Z,80.07
2023-04-15T19:33:03.081Z,81.40
2023-04-15T19:35:31.044Z,81.75
2023-04-15T19:37:59.272Z,81.93
2023-04-15T19:40:27.326Z,82.58
2023-04-15T19:42:55.028Z,82.49
2023-04-15T19:45:22.755Z,82.66
2023-04-15T19:47:50.547Z,82.97
2023-04-15T19:50:24.655Z,83.01
2023-04-15T19:53:00.449Z,83.12
2023-04-15T19:55:28.173Z,82.83
2023-04-15T19:57:55.994Z,83.50
2023-04-15T20:00:23.877Z,83.91
2023-04-15T20:02:51.836Z,84.09
2023-04-15T20:05:19.708Z,84.10
2023-04-15T20:07:48.778Z,84.79
2023-04-15T20:10:17.946Z,85.11
2023-04-15T20:12:50.029Z,85.61
2023-04-15T20:15:22.634Z,86.06
2023-04-15T20:17:50.729Z,85.85
2023-04-15T20:20:18.502Z,85.96
2023-04-15T20:22:46.247Z,86.07
2023-04-15T20:25:14.009Z,85.41
2023-04-15T20:27:43.164Z,85.40
2023-04-15T20:30:11.816Z,84.73
2023-04-15T20:32:39.601Z,84.62
2023-04-15T20:35:08.185Z,85.09
2023-04-15T20:37:37.783Z,85.44
2023-04-15T20:40:06.424Z,85.54
2023-04-15T20:42:35.513Z,86.36
2023-04-15T20:45:06.957Z,85.82
2023-04-15T20:47:34.701Z,85.77
2023-04-15T20:50:02.550Z,86.23
2023-04-15T20:52:30.282Z,86.32
2023-04-15T20:54:58.019Z,86.53
2023-04-15T20:57:25.916Z,86.63
2023-04-15T20:59:53.694Z,86.68
2023-04-15T21:02:23.373Z,86.59
2023-04-15T21:04:51.299Z,86.96
2023-04-15T21:07:18.973Z,87.07
2023-04-15T21:09:47.251Z,87.02
2023-04-15T21:12:25.116Z,86.40
2023-04-15T21:14:56.634Z,86.07
2023-04-15T21:17:27.050Z,86.08
2023-04-15T21:19:54.959Z,86.04
2023-04-15T21:22:22.684Z,86.42
2023-04-15T21:24:50.380Z,86.34
2023-04-15T21:27:18.061Z,86.43
2023-04-15T21:29:45.802Z,86.58
2023-04-15T21:32:13.550Z,86.63
2023-04-15T21:34:42.727Z,86.57
2023-04-15T21:37:10.425Z,86.98
2023-04-15T21:39:38.168Z,86.45
2023-04-15T21:42:05.966Z,86.30
2023-04-15T21:44:33.672Z,86.94
2023-04-15T21:47:01.985Z,87.24
2023-04-15T21:49:29.842Z,86.88
2023-04-15T21:52:01.233Z,86.96
2023-04-15T21:54:31.012Z,87.17
2023-04-15T21:56:58.663Z,87.49
2023-04-15T21:59:27.128Z,87.23
2023-04-15T22:01:54.921Z,86.83
2023-04-15T22:04:23.051Z,87.18
2023-04-15T22:06:52.166Z,87.59
2023-04-15T22:09:21.234Z,87.33
2023-04-15T22:11:48.972Z,87.70
2023-04-15T22:14:16.628Z,87.28
2023-04-15T22:16:44.653Z,87.47
2023-04-15T22:19:12.500Z,87.63
2023-04-15T22:21:40.157Z,87.91
2023-04-15T22:24:39.195Z,88.40
2023-04-15T22:26:57.624Z,88.37
2023-04-15T22:29:25.282Z,88.62
2023-04-15T22:31:53.084Z,87.44
2023-04-15T22:34:21.924Z,88.16
2023-04-15T22:36:49.670Z,88.11
2023-04-15T22:39:17.856Z,88.20
2023-04-15T22:41:45.866Z,88.25
2023-04-15T22:44:15.012Z,88.15
2023-04-15T22:46:42.695Z,88.29
2023-04-15T22:49:11.352Z,88.08
2023-04-15T22:51:39.071Z,87.87
2023-04-15T22:54:06.879Z,88.32
2023-04-15T22:56:34.623Z,88.11
2023-04-15T22:59:02.269Z,87.93
2023-04-15T23:01:31.955Z,87.50
2023-04-15T23:04:02.545Z,87.89
2023-04-15T23:06:36.007Z,88.12
2023-04-15T23:09:03.672Z,88.25
2023-04-15T23:11:31.692Z,88.15
2023-04-15T23:13:59.508Z,88.16
2023-04-15T23:16:27.204Z,88.12
2023-04-15T23:18:56.515Z,87.88
2023-04-15T23:21:26.036Z,88.20
2023-04-15T23:23:53.916Z,87.99
2023-04-15T23:26:21.589Z,87.95
2023-04-15T23:28:49.271Z,88.71
2023-04-15T23:31:17.108Z,88.71
2023-04-15T23:33:44.886Z,88.66
2023-04-15T23:36:14.005Z,88.24
2023-04-15T23:38:41.731Z,88.28
2023-04-15T23:41:09.917Z,88.00
2023-04-15T23:43:37.869Z,88.38
2023-04-15T23:46:05.664Z,88.22
2023-04-15T23:48:33.407Z,87.89
2023-04-15T23:51:01.633Z,88.59
2023-04-15T23:53:30.850Z,88.45
2023-04-15T23:55:58.550Z,88.23
2023-04-15T23:58:26.245Z,88.61
